sensor_id;sensor_type;location;lat;lon;timestamp;P1;durP1;ratioP1;P2;durP2;ratioP2
23682;SDS011;24897;53.514;10.482;2023-09-19T00:01:04;29.90;;;26.70;;
23682;SDS011;24897;53.514;10.482;2023-09-19T00:03:51;30.50;;;26.63;;
23682;SDS011;24897;53.514;10.482;2023-09-19T00:06:36;33.90;;;26.97;;
23682;SDS011;24897;53.514;10.482;2023-09-19T00:09:20;32.27;;;27.70;;
23682;SDS011;24897;53.514;10.482;2023-09-19T00:12:05;31.20;;;27.57;;
23682;SDS011;24897;53.514;10.482;2023-09-19T00:14:50;29.10;;;26.00;;
23682;SDS011;24897;53.514;10.482;2023-09-19T00:17:35;31.20;;;27.87;;
23682;SDS011;24897;53.514;10.482;2023-09-19T00:20:21;31.53;;;27.17;;
23682;SDS011;24897;53.514;10.482;2023-09-19T00:23:06;29.10;;;26.00;;
23682;SDS011;24897;53.514;10.482;2023-09-19T00:25:52;29.07;;;25.97;;
23682;SDS011;24897;53.514;10.482;2023-09-19T00:28:41;29.17;;;25.97;;
23682;SDS011;24897;53.514;10.482;2023-09-19T00:31:25;30.17;;;26.97;;
23682;SDS011;24897;53.514;10.482;2023-09-19T00:34:09;29.73;;;26.53;;
23682;SDS011;24897;53.514;10.482;2023-09-19T00:36:54;32.77;;;29.00;;
23682;SDS011;24897;53.514;10.482;2023-09-19T00:39:38;31.83;;;27.40;;
23682;SDS011;24897;53.514;10.482;2023-09-19T00:42:24;30.30;;;27.03;;
23682;SDS011;24897;53.514;10.482;2023-09-19T00:45:09;32.47;;;27.77;;
23682;SDS011;24897;53.514;10.482;2023-09-19T00:47:55;33.53;;;26.83;;
23682;SDS011;24897;53.514;10.482;2023-09-19T00:50:41;30.73;;;27.07;;
23682;SDS011;24897;53.514;10.482;2023-09-19T00:53:27;31.67;;;28.27;;
23682;SDS011;24897;53.514;10.482;2023-09-19T00:56:14;35.27;;;30.47;;
23682;SDS011;24897;53.514;10.482;2023-09-19T00:59:02;32.33;;;28.50;;
23682;SDS011;24897;53.514;10.482;2023-09-19T01:01:46;32.97;;;28.30;;
23682;SDS011;24897;53.514;10.482;2023-09-19T01:04:36;30.03;;;26.63;;
23682;SDS011;24897;53.514;10.482;2023-09-19T01:07:21;33.40;;;29.07;;
23682;SDS011;24897;53.514;10.482;2023-09-19T01:10:10;31.33;;;27.93;;
23682;SDS011;24897;53.514;10.482;2023-09-19T01:13:03;30.57;;;26.67;;
23682;SDS011;24897;53.514;10.482;2023-09-19T01:16:19;30.80;;;27.47;;
23682;SDS011;24897;53.514;10.482;2023-09-19T01:22:56;31.80;;;28.27;;
23682;SDS011;24897;53.514;10.482;2023-09-19T01:32:18;32.43;;;28.77;;
23682;SDS011;24897;53.514;10.482;2023-09-19T01:35:08;33.47;;;29.53;;
23682;SDS011;24897;53.514;10.482;2023-09-19T01:37:56;34.10;;;30.50;;
23682;SDS011;24897;53.514;10.482;2023-09-19T01:40:43;33.43;;;29.80;;
23682;SDS011;24897;53.514;10.482;2023-09-19T01:43:41;29.00;;;25.90;;
23682;SDS011;24897;53.514;10.482;2023-09-19T01:46:33;31.97;;;28.57;;
23682;SDS011;24897;53.514;10.482;2023-09-19T01:52:21;34.50;;;28.27;;
23682;SDS011;24897;53.514;10.482;2023-09-19T01:55:08;31.77;;;28.27;;
23682;SDS011;24897;53.514;10.482;2023-09-19T01:57:56;32.03;;;28.63;;
23682;SDS011;24897;53.514;10.482;2023-09-19T02:00:43;32.33;;;27.40;;
23682;SDS011;24897;53.514;10.482;2023-09-19T02:03:31;30.17;;;26.90;;
23682;SDS011;24897;53.514;10.482;2023-09-19T02:06:18;30.60;;;27.20;;
23682;SDS011;24897;53.514;10.482;2023-09-19T02:09:03;32.77;;;29.27;;
23682;SDS011;24897;53.514;10.482;2023-09-19T02:11:47;32.47;;;28.83;;
23682;SDS011;24897;53.514;10.482;2023-09-19T02:14:33;31.10;;;27.70;;
23682;SDS011;24897;53.514;10.482;2023-09-19T02:17:17;32.10;;;28.60;;
23682;SDS011;24897;53.514;10.482;2023-09-19T02:20:03;32.70;;;28.40;;
23682;SDS011;24897;53.514;10.482;2023-09-19T02:22:54;32.13;;;27.67;;
23682;SDS011;24897;53.514;10.482;2023-09-19T02:25:38;32.73;;;28.03;;
23682;SDS011;24897;53.514;10.482;2023-09-19T02:28:24;30.53;;;27.27;;
23682;SDS011;24897;53.514;10.482;2023-09-19T02:31:09;34.53;;;28.73;;
23682;SDS011;24897;53.514;10.482;2023-09-19T02:33:54;35.00;;;28.00;;
23682;SDS011;24897;53.514;10.482;2023-09-19T02:36:40;32.67;;;26.60;;
23682;SDS011;24897;53.514;10.482;2023-09-19T02:39:24;30.73;;;27.33;;
23682;SDS011;24897;53.514;10.482;2023-09-19T02:42:08;34.93;;;27.80;;
23682;SDS011;24897;53.514;10.482;2023-09-19T02:44:52;31.07;;;27.27;;
23682;SDS011;24897;53.514;10.482;2023-09-19T02:47:36;32.73;;;27.53;;
23682;SDS011;24897;53.514;10.482;2023-09-19T02:50:21;31.37;;;26.97;;
23682;SDS011;24897;53.514;10.482;2023-09-19T02:53:05;31.17;;;27.83;;
23682;SDS011;24897;53.514;10.482;2023-09-19T02:55:50;29.20;;;25.83;;
23682;SDS011;24897;53.514;10.482;2023-09-19T02:58:38;34.53;;;26.73;;
23682;SDS011;24897;53.514;10.482;2023-09-19T03:01:22;34.17;;;27.70;;
23682;SDS011;24897;53.514;10.482;2023-09-19T03:04:06;32.93;;;28.53;;
23682;SDS011;24897;53.514;10.482;2023-09-19T03:06:52;35.40;;;28.03;;
23682;SDS011;24897;53.514;10.482;2023-09-19T03:09:42;33.80;;;28.07;;
23682;SDS011;24897;53.514;10.482;2023-09-19T03:12:26;31.50;;;27.33;;
23682;SDS011;24897;53.514;10.482;2023-09-19T03:15:10;32.73;;;27.57;;
23682;SDS011;24897;53.514;10.482;2023-09-19T03:17:55;31.87;;;28.17;;
23682;SDS011;24897;53.514;10.482;2023-09-19T03:20:39;31.33;;;27.53;;
23682;SDS011;24897;53.514;10.482;2023-09-19T03:23:23;33.53;;;29.20;;
23682;SDS011;24897;53.514;10.482;2023-09-19T03:26:07;32.77;;;27.90;;
23682;SDS011;24897;53.514;10.482;2023-09-19T03:28:52;34.17;;;28.87;;
23682;SDS011;24897;53.514;10.482;2023-09-19T03:31:37;36.10;;;26.43;;
23682;SDS011;24897;53.514;10.482;2023-09-19T03:34:21;30.57;;;26.77;;
23682;SDS011;24897;53.514;10.482;2023-09-19T03:37:05;32.73;;;27.77;;
23682;SDS011;24897;53.514;10.482;2023-09-19T03:39:50;29.70;;;26.50;;
23682;SDS011;24897;53.514;10.482;2023-09-19T03:42:34;33.10;;;27.90;;
23682;SDS011;24897;53.514;10.482;2023-09-19T03:45:21;33.60;;;26.63;;
23682;SDS011;24897;53.514;10.482;2023-09-19T03:48:08;34.40;;;27.00;;
23682;SDS011;24897;53.514;10.482;2023-09-19T03:50:55;29.67;;;26.53;;
23682;SDS011;24897;53.514;10.482;2023-09-19T03:53:40;29.40;;;26.30;;
23682;SDS011;24897;53.514;10.482;2023-09-19T03:56:24;29.70;;;26.50;;
23682;SDS011;24897;53.514;10.482;2023-09-19T03:59:08;32.73;;;25.33;;
23682;SDS011;24897;53.514;10.482;2023-09-19T04:01:53;30.20;;;25.67;;
23682;SDS011;24897;53.514;10.482;2023-09-19T04:04:40;29.33;;;26.20;;
23682;SDS011;24897;53.514;10.482;2023-09-19T04:07:24;30.83;;;26.27;;
23682;SDS011;24897;53.514;10.482;2023-09-19T04:10:12;28.87;;;25.33;;
23682;SDS011;24897;53.514;10.482;2023-09-19T04:12:58;29.17;;;26.07;;
23682;SDS011;24897;53.514;10.482;2023-09-19T04:15:42;28.97;;;25.57;;
23682;SDS011;24897;53.514;10.482;2023-09-19T04:18:26;29.13;;;26.07;;
23682;SDS011;24897;53.514;10.482;2023-09-19T04:21:10;28.50;;;25.37;;
23682;SDS011;24897;53.514;10.482;2023-09-19T04:23:54;29.97;;;25.33;;
23682;SDS011;24897;53.514;10.482;2023-09-19T04:26:38;27.03;;;24.30;;
23682;SDS011;24897;53.514;10.482;2023-09-19T04:29:22;28.60;;;25.70;;
23682;SDS011;24897;53.514;10.482;2023-09-19T04:32:07;27.87;;;25.00;;
23682;SDS011;24897;53.514;10.482;2023-09-19T04:34:51;27.40;;;24.70;;
23682;SDS011;24897;53.514;10.482;2023-09-19T04:37:38;26.03;;;23.40;;
23682;SDS011;24897;53.514;10.482;2023-09-19T04:40:23;25.87;;;23.17;;
23682;SDS011;24897;53.514;10.482;2023-09-19T04:43:10;25.83;;;23.30;;
23682;SDS011;24897;53.514;10.482;2023-09-19T04:45:54;26.20;;;23.70;;
23682;SDS011;24897;53.514;10.482;2023-09-19T04:48:39;26.10;;;23.57;;
23682;SDS011;24897;53.514;10.482;2023-09-19T04:51:24;26.37;;;23.87;;
23682;SDS011;24897;53.514;10.482;2023-09-19T04:54:09;25.27;;;22.80;;
23682;SDS011;24897;53.514;10.482;2023-09-19T04:56:53;25.37;;;22.97;;
23682;SDS011;24897;53.514;10.482;2023-09-19T04:59:37;24.13;;;21.83;;
23682;SDS011;24897;53.514;10.482;2023-09-19T05:02:24;25.77;;;22.97;;
23682;SDS011;24897;53.514;10.482;2023-09-19T05:05:08;25.63;;;23.17;;
23682;SDS011;24897;53.514;10.482;2023-09-19T05:07:58;25.47;;;23.13;;
23682;SDS011;24897;53.514;10.482;2023-09-19T05:10:42;25.43;;;23.03;;
23682;SDS011;24897;53.514;10.482;2023-09-19T05:13:26;24.93;;;22.33;;
23682;SDS011;24897;53.514;10.482;2023-09-19T05:16:10;26.40;;;23.43;;
23682;SDS011;24897;53.514;10.482;2023-09-19T05:18:54;26.13;;;23.53;;
23682;SDS011;24897;53.514;10.482;2023-09-19T05:21:39;26.23;;;23.57;;
23682;SDS011;24897;53.514;10.482;2023-09-19T05:24:23;26.67;;;24.03;;
23682;SDS011;24897;53.514;10.482;2023-09-19T05:27:10;25.83;;;23.33;;
23682;SDS011;24897;53.514;10.482;2023-09-19T05:29:54;25.47;;;22.93;;
23682;SDS011;24897;53.514;10.482;2023-09-19T05:32:39;26.43;;;23.73;;
23682;SDS011;24897;53.514;10.482;2023-09-19T05:35:23;26.23;;;23.53;;
23682;SDS011;24897;53.514;10.482;2023-09-19T05:38:08;28.40;;;24.60;;
23682;SDS011;24897;53.514;10.482;2023-09-19T05:40:52;27.40;;;24.57;;
23682;SDS011;24897;53.514;10.482;2023-09-19T05:43:37;27.13;;;24.23;;
23682;SDS011;24897;53.514;10.482;2023-09-19T05:46:21;26.87;;;24.27;;
23682;SDS011;24897;53.514;10.482;2023-09-19T05:49:06;27.43;;;23.80;;
23682;SDS011;24897;53.514;10.482;2023-09-19T05:51:50;30.23;;;24.37;;
23682;SDS011;24897;53.514;10.482;2023-09-19T05:54:37;29.27;;;24.77;;
23682;SDS011;24897;53.514;10.482;2023-09-19T05:57:21;28.57;;;24.43;;
23682;SDS011;24897;53.514;10.482;2023-09-19T06:00:06;27.37;;;24.57;;
23682;SDS011;24897;53.514;10.482;2023-09-19T06:02:54;27.70;;;24.80;;
23682;SDS011;24897;53.514;10.482;2023-09-19T06:05:40;30.07;;;24.67;;
23682;SDS011;24897;53.514;10.482;2023-09-19T06:08:25;28.47;;;23.83;;
23682;SDS011;24897;53.514;10.482;2023-09-19T06:11:09;28.13;;;25.07;;
23682;SDS011;24897;53.514;10.482;2023-09-19T06:13:54;26.00;;;23.30;;
23682;SDS011;24897;53.514;10.482;2023-09-19T06:16:38;26.27;;;23.47;;
23682;SDS011;24897;53.514;10.482;2023-09-19T06:19:23;28.33;;;23.87;;
23682;SDS011;24897;53.514;10.482;2023-09-19T06:22:09;25.83;;;22.73;;
23682;SDS011;24897;53.514;10.482;2023-09-19T06:24:54;28.20;;;24.70;;
23682;SDS011;24897;53.514;10.482;2023-09-19T06:27:38;25.90;;;22.50;;
23682;SDS011;24897;53.514;10.482;2023-09-19T06:30:26;26.33;;;23.53;;
23682;SDS011;24897;53.514;10.482;2023-09-19T06:33:13;25.27;;;22.67;;
23682;SDS011;24897;53.514;10.482;2023-09-19T06:35:57;26.77;;;22.80;;
23682;SDS011;24897;53.514;10.482;2023-09-19T06:38:43;24.70;;;22.13;;
23682;SDS011;24897;53.514;10.482;2023-09-19T06:41:28;25.47;;;22.80;;
23682;SDS011;24897;53.514;10.482;2023-09-19T06:44:13;24.73;;;22.43;;
23682;SDS011;24897;53.514;10.482;2023-09-19T06:46:58;24.37;;;21.73;;
23682;SDS011;24897;53.514;10.482;2023-09-19T06:49:42;28.23;;;23.37;;
23682;SDS011;24897;53.514;10.482;2023-09-19T06:52:30;25.27;;;22.73;;
23682;SDS011;24897;53.514;10.482;2023-09-19T06:55:14;25.50;;;23.17;;
23682;SDS011;24897;53.514;10.482;2023-09-19T06:57:59;25.37;;;22.83;;
23682;SDS011;24897;53.514;10.482;2023-09-19T07:00:43;25.17;;;22.80;;
23682;SDS011;24897;53.514;10.482;2023-09-19T07:03:28;24.73;;;22.03;;
23682;SDS011;24897;53.514;10.482;2023-09-19T07:06:12;24.60;;;22.20;;
23682;SDS011;24897;53.514;10.482;2023-09-19T07:08:56;24.47;;;22.23;;
23682;SDS011;24897;53.514;10.482;2023-09-19T07:11:40;25.00;;;22.70;;
23682;SDS011;24897;53.514;10.482;2023-09-19T07:14:24;25.43;;;23.10;;
23682;SDS011;24897;53.514;10.482;2023-09-19T07:17:08;29.00;;;23.23;;
23682;SDS011;24897;53.514;10.482;2023-09-19T07:19:52;25.37;;;22.90;;
23682;SDS011;24897;53.514;10.482;2023-09-19T07:22:36;25.30;;;22.97;;
23682;SDS011;24897;53.514;10.482;2023-09-19T07:25:22;25.70;;;23.07;;
23682;SDS011;24897;53.514;10.482;2023-09-19T07:28:07;25.17;;;22.67;;
23682;SDS011;24897;53.514;10.482;2023-09-19T07:30:51;26.80;;;23.33;;
23682;SDS011;24897;53.514;10.482;2023-09-19T07:33:36;27.70;;;24.73;;
23682;SDS011;24897;53.514;10.482;2023-09-19T07:36:20;26.03;;;22.90;;
23682;SDS011;24897;53.514;10.482;2023-09-19T07:39:04;26.83;;;24.03;;
23682;SDS011;24897;53.514;10.482;2023-09-19T07:41:50;25.43;;;22.73;;
23682;SDS011;24897;53.514;10.482;2023-09-19T07:44:35;24.63;;;22.40;;
23682;SDS011;24897;53.514;10.482;2023-09-19T07:47:20;23.80;;;21.30;;
23682;SDS011;24897;53.514;10.482;2023-09-19T07:50:04;25.20;;;22.37;;
23682;SDS011;24897;53.514;10.482;2023-09-19T07:52:50;24.63;;;22.13;;
23682;SDS011;24897;53.514;10.482;2023-09-19T07:55:36;24.20;;;21.77;;
23682;SDS011;24897;53.514;10.482;2023-09-19T07:58:20;24.27;;;21.67;;
23682;SDS011;24897;53.514;10.482;2023-09-19T08:01:07;23.57;;;21.23;;
23682;SDS011;24897;53.514;10.482;2023-09-19T08:03:51;24.87;;;22.37;;
23682;SDS011;24897;53.514;10.482;2023-09-19T08:06:36;24.97;;;22.40;;
23682;SDS011;24897;53.514;10.482;2023-09-19T08:09:22;25.20;;;22.60;;
23682;SDS011;24897;53.514;10.482;2023-09-19T08:12:07;23.33;;;20.93;;
23682;SDS011;24897;53.514;10.482;2023-09-19T08:14:54;23.77;;;21.27;;
23682;SDS011;24897;53.514;10.482;2023-09-19T08:17:39;26.83;;;22.10;;
23682;SDS011;24897;53.514;10.482;2023-09-19T08:20:23;24.57;;;22.13;;
23682;SDS011;24897;53.514;10.482;2023-09-19T08:23:08;24.60;;;21.87;;
23682;SDS011;24897;53.514;10.482;2023-09-19T08:25:55;24.93;;;22.40;;
23682;SDS011;24897;53.514;10.482;2023-09-19T08:28:40;26.53;;;21.97;;
23682;SDS011;24897;53.514;10.482;2023-09-19T08:31:24;24.40;;;21.83;;
23682;SDS011;24897;53.514;10.482;2023-09-19T08:34:09;23.27;;;20.93;;
23682;SDS011;24897;53.514;10.482;2023-09-19T08:36:54;24.50;;;21.90;;
23682;SDS011;24897;53.514;10.482;2023-09-19T08:39:41;23.23;;;20.87;;
23682;SDS011;24897;53.514;10.482;2023-09-19T08:42:26;26.17;;;22.50;;
23682;SDS011;24897;53.514;10.482;2023-09-19T08:45:11;24.53;;;21.97;;
23682;SDS011;24897;53.514;10.482;2023-09-19T08:51:00;24.50;;;20.40;;
23682;SDS011;24897;53.514;10.482;2023-09-19T08:53:51;22.27;;;20.10;;
23682;SDS011;24897;53.514;10.482;2023-09-19T08:56:47;22.60;;;20.13;;
23682;SDS011;24897;53.514;10.482;2023-09-19T08:59:33;22.70;;;20.37;;
23682;SDS011;24897;53.514;10.482;2023-09-19T09:02:23;21.07;;;18.90;;
23682;SDS011;24897;53.514;10.482;2023-09-19T09:05:09;21.07;;;19.10;;
23682;SDS011;24897;53.514;10.482;2023-09-19T09:07:54;21.50;;;19.17;;
23682;SDS011;24897;53.514;10.482;2023-09-19T09:10:39;22.90;;;20.40;;
23682;SDS011;24897;53.514;10.482;2023-09-19T09:13:26;23.00;;;19.77;;
23682;SDS011;24897;53.514;10.482;2023-09-19T09:16:11;21.47;;;19.17;;
23682;SDS011;24897;53.514;10.482;2023-09-19T09:18:56;21.53;;;19.20;;
23682;SDS011;24897;53.514;10.482;2023-09-19T09:21:41;20.90;;;18.80;;
23682;SDS011;24897;53.514;10.482;2023-09-19T09:24:28;22.03;;;18.63;;
23682;SDS011;24897;53.514;10.482;2023-09-19T09:27:14;22.50;;;18.53;;
23682;SDS011;24897;53.514;10.482;2023-09-19T09:29:59;21.40;;;17.80;;
23682;SDS011;24897;53.514;10.482;2023-09-19T09:32:43;19.43;;;17.40;;
23682;SDS011;24897;53.514;10.482;2023-09-19T09:35:28;19.83;;;17.30;;
23682;SDS011;24897;53.514;10.482;2023-09-19T09:38:12;20.03;;;18.00;;
23682;SDS011;24897;53.514;10.482;2023-09-19T09:40:58;19.73;;;17.77;;
23682;SDS011;24897;53.514;10.482;2023-09-19T09:43:49;19.63;;;16.70;;
23682;SDS011;24897;53.514;10.482;2023-09-19T09:46:33;19.30;;;16.03;;
23682;SDS011;24897;53.514;10.482;2023-09-19T09:49:40;17.80;;;15.07;;
23682;SDS011;24897;53.514;10.482;2023-09-19T09:52:56;16.33;;;14.50;;
23682;SDS011;24897;53.514;10.482;2023-09-19T09:56:23;18.13;;;14.47;;
23682;SDS011;24897;53.514;10.482;2023-09-19T09:59:01;16.37;;;14.63;;
23682;SDS011;24897;53.514;10.482;2023-09-19T10:01:47;17.63;;;14.60;;
23682;SDS011;24897;53.514;10.482;2023-09-19T10:04:32;20.07;;;15.27;;
23682;SDS011;24897;53.514;10.482;2023-09-19T10:07:24;16.47;;;14.70;;
23682;SDS011;24897;53.514;10.482;2023-09-19T10:10:35;17.50;;;14.97;;
23682;SDS011;24897;53.514;10.482;2023-09-19T10:13:28;15.87;;;14.37;;
23682;SDS011;24897;53.514;10.482;2023-09-19T10:16:14;16.50;;;14.67;;
23682;SDS011;24897;53.514;10.482;2023-09-19T10:19:02;18.53;;;14.40;;
23682;SDS011;24897;53.514;10.482;2023-09-19T10:21:54;15.87;;;14.43;;
23682;SDS011;24897;53.514;10.482;2023-09-19T10:24:40;15.53;;;14.10;;
23682;SDS011;24897;53.514;10.482;2023-09-19T10:27:25;15.80;;;14.20;;
23682;SDS011;24897;53.514;10.482;2023-09-19T10:30:10;16.50;;;14.23;;
23682;SDS011;24897;53.514;10.482;2023-09-19T10:32:57;15.83;;;14.27;;
23682;SDS011;24897;53.514;10.482;2023-09-19T10:35:48;16.37;;;14.67;;
23682;SDS011;24897;53.514;10.482;2023-09-19T10:38:37;16.57;;;14.77;;
23682;SDS011;24897;53.514;10.482;2023-09-19T10:41:26;17.00;;;15.17;;
23682;SDS011;24897;53.514;10.482;2023-09-19T10:44:13;16.57;;;14.70;;
23682;SDS011;24897;53.514;10.482;2023-09-19T10:46:58;17.93;;;15.37;;
23682;SDS011;24897;53.514;10.482;2023-09-19T10:49:43;16.83;;;15.03;;
23682;SDS011;24897;53.514;10.482;2023-09-19T10:52:31;17.13;;;15.50;;
23682;SDS011;24897;53.514;10.482;2023-09-19T10:55:18;17.47;;;15.67;;
23682;SDS011;24897;53.514;10.482;2023-09-19T10:58:05;17.87;;;16.07;;
23682;SDS011;24897;53.514;10.482;2023-09-19T11:00:58;19.67;;;16.10;;
23682;SDS011;24897;53.514;10.482;2023-09-19T11:03:49;21.73;;;16.70;;
23682;SDS011;24897;53.514;10.482;2023-09-19T11:07:13;18.50;;;15.87;;
23682;SDS011;24897;53.514;10.482;2023-09-19T11:09:59;17.30;;;15.67;;
23682;SDS011;24897;53.514;10.482;2023-09-19T11:12:48;17.13;;;15.53;;
23682;SDS011;24897;53.514;10.482;2023-09-19T11:27:12;18.67;;;15.90;;
23682;SDS011;24897;53.514;10.482;2023-09-19T11:30:25;17.60;;;15.80;;
23682;SDS011;24897;53.514;10.482;2023-09-19T11:33:29;22.30;;;16.53;;
23682;SDS011;24897;53.514;10.482;2023-09-19T11:36:15;18.37;;;16.20;;
23682;SDS011;24897;53.514;10.482;2023-09-19T11:39:02;18.53;;;16.63;;
23682;SDS011;24897;53.514;10.482;2023-09-19T11:41:52;17.53;;;15.70;;
23682;SDS011;24897;53.514;10.482;2023-09-19T11:44:39;17.87;;;16.10;;
23682;SDS011;24897;53.514;10.482;2023-09-19T11:47:25;18.37;;;16.47;;
23682;SDS011;24897;53.514;10.482;2023-09-19T11:50:09;18.00;;;16.07;;
23682;SDS011;24897;53.514;10.482;2023-09-19T11:52:55;17.77;;;15.97;;
23682;SDS011;24897;53.514;10.482;2023-09-19T11:55:39;19.93;;;16.47;;
23682;SDS011;24897;53.514;10.482;2023-09-19T11:58:26;21.53;;;15.87;;
23682;SDS011;24897;53.514;10.482;2023-09-19T12:01:13;20.93;;;18.63;;
23682;SDS011;24897;53.514;10.482;2023-09-19T12:04:03;20.47;;;18.07;;
23682;SDS011;24897;53.514;10.482;2023-09-19T12:06:56;20.50;;;18.03;;
23682;SDS011;24897;53.514;10.482;2023-09-19T12:09:44;20.90;;;19.00;;
23682;SDS011;24897;53.514;10.482;2023-09-19T12:12:32;20.23;;;18.13;;
23682;SDS011;24897;53.514;10.482;2023-09-19T12:15:22;19.97;;;17.97;;
23682;SDS011;24897;53.514;10.482;2023-09-19T12:18:27;20.03;;;17.97;;
23682;SDS011;24897;53.514;10.482;2023-09-19T12:21:28;21.10;;;19.03;;
23682;SDS011;24897;53.514;10.482;2023-09-19T12:24:20;20.50;;;18.60;;
23682;SDS011;24897;53.514;10.482;2023-09-19T12:27:05;20.87;;;18.67;;
23682;SDS011;24897;53.514;10.482;2023-09-19T12:29:50;20.33;;;18.23;;
23682;SDS011;24897;53.514;10.482;2023-09-19T12:32:39;20.30;;;18.10;;
23682;SDS011;24897;53.514;10.482;2023-09-19T12:35:27;19.80;;;18.03;;
23682;SDS011;24897;53.514;10.482;2023-09-19T12:38:22;21.13;;;18.83;;
23682;SDS011;24897;53.514;10.482;2023-09-19T12:41:13;18.07;;;16.27;;
23682;SDS011;24897;53.514;10.482;2023-09-19T12:43:57;22.07;;;16.50;;
23682;SDS011;24897;53.514;10.482;2023-09-19T12:46:44;17.57;;;15.83;;
23682;SDS011;24897;53.514;10.482;2023-09-19T12:49:28;18.60;;;16.73;;
23682;SDS011;24897;53.514;10.482;2023-09-19T12:52:12;18.70;;;16.17;;
23682;SDS011;24897;53.514;10.482;2023-09-19T12:54:57;18.20;;;16.17;;
23682;SDS011;24897;53.514;10.482;2023-09-19T13:00:55;17.70;;;16.10;;
23682;SDS011;24897;53.514;10.482;2023-09-19T13:03:40;20.67;;;18.57;;
23682;SDS011;24897;53.514;10.482;2023-09-19T13:06:37;19.93;;;17.97;;
23682;SDS011;24897;53.514;10.482;2023-09-19T13:09:22;21.03;;;18.97;;
23682;SDS011;24897;53.514;10.482;2023-09-19T13:12:36;20.27;;;18.37;;
23682;SDS011;24897;53.514;10.482;2023-09-19T13:15:22;20.60;;;18.53;;
23682;SDS011;24897;53.514;10.482;2023-09-19T13:18:12;20.73;;;18.37;;
23682;SDS011;24897;53.514;10.482;2023-09-19T13:21:11;20.93;;;18.83;;
23682;SDS011;24897;53.514;10.482;2023-09-19T13:24:19;21.97;;;18.67;;
23682;SDS011;24897;53.514;10.482;2023-09-19T13:27:04;20.70;;;18.67;;
23682;SDS011;24897;53.514;10.482;2023-09-19T13:29:50;20.47;;;18.60;;
23682;SDS011;24897;53.514;10.482;2023-09-19T13:32:34;20.57;;;17.73;;
23682;SDS011;24897;53.514;10.482;2023-09-19T13:35:18;20.63;;;18.57;;
23682;SDS011;24897;53.514;10.482;2023-09-19T13:38:02;20.17;;;18.07;;
23682;SDS011;24897;53.514;10.482;2023-09-19T13:40:46;20.27;;;18.43;;
23682;SDS011;24897;53.514;10.482;2023-09-19T13:43:30;19.77;;;17.73;;
23682;SDS011;24897;53.514;10.482;2023-09-19T13:46:14;20.10;;;18.27;;
23682;SDS011;24897;53.514;10.482;2023-09-19T13:49:01;20.60;;;18.53;;
23682;SDS011;24897;53.514;10.482;2023-09-19T13:51:47;20.20;;;18.27;;
23682;SDS011;24897;53.514;10.482;2023-09-19T13:54:31;19.90;;;18.10;;
23682;SDS011;24897;53.514;10.482;2023-09-19T13:57:16;20.70;;;18.57;;
23682;SDS011;24897;53.514;10.482;2023-09-19T14:00:00;19.37;;;17.77;;
23682;SDS011;24897;53.514;10.482;2023-09-19T14:02:44;19.97;;;17.93;;
23682;SDS011;24897;53.514;10.482;2023-09-19T14:05:29;19.57;;;17.83;;
23682;SDS011;24897;53.514;10.482;2023-09-19T14:08:13;19.37;;;17.57;;
23682;SDS011;24897;53.514;10.482;2023-09-19T14:10:57;20.43;;;18.43;;
23682;SDS011;24897;53.514;10.482;2023-09-19T14:13:41;20.77;;;18.77;;
23682;SDS011;24897;53.514;10.482;2023-09-19T14:16:30;20.80;;;18.83;;
23682;SDS011;24897;53.514;10.482;2023-09-19T14:19:14;21.10;;;19.10;;
23682;SDS011;24897;53.514;10.482;2023-09-19T14:21:59;20.33;;;18.43;;
23682;SDS011;24897;53.514;10.482;2023-09-19T14:24:50;19.53;;;17.73;;
23682;SDS011;24897;53.514;10.482;2023-09-19T14:27:36;19.53;;;17.50;;
23682;SDS011;24897;53.514;10.482;2023-09-19T14:30:20;19.73;;;18.00;;
23682;SDS011;24897;53.514;10.482;2023-09-19T14:33:05;20.23;;;18.03;;
23682;SDS011;24897;53.514;10.482;2023-09-19T14:35:51;19.87;;;17.83;;
23682;SDS011;24897;53.514;10.482;2023-09-19T14:38:35;20.20;;;18.13;;
23682;SDS011;24897;53.514;10.482;2023-09-19T14:41:21;20.33;;;18.27;;
23682;SDS011;24897;53.514;10.482;2023-09-19T14:44:06;19.87;;;17.87;;
23682;SDS011;24897;53.514;10.482;2023-09-19T14:46:50;20.47;;;18.47;;
23682;SDS011;24897;53.514;10.482;2023-09-19T14:49:34;19.93;;;17.90;;
23682;SDS011;24897;53.514;10.482;2023-09-19T14:52:21;20.53;;;18.43;;
23682;SDS011;24897;53.514;10.482;2023-09-19T14:55:06;20.37;;;18.47;;
23682;SDS011;24897;53.514;10.482;2023-09-19T14:57:52;20.23;;;18.40;;
23682;SDS011;24897;53.514;10.482;2023-09-19T15:00:39;20.50;;;18.60;;
23682;SDS011;24897;53.514;10.482;2023-09-19T15:03:23;20.83;;;18.80;;
23682;SDS011;24897;53.514;10.482;2023-09-19T15:06:11;20.77;;;18.80;;
23682;SDS011;24897;53.514;10.482;2023-09-19T15:09:00;19.90;;;17.97;;
23682;SDS011;24897;53.514;10.482;2023-09-19T15:11:44;21.60;;;18.80;;
23682;SDS011;24897;53.514;10.482;2023-09-19T15:14:29;20.53;;;18.73;;
23682;SDS011;24897;53.514;10.482;2023-09-19T15:17:16;20.50;;;18.60;;
23682;SDS011;24897;53.514;10.482;2023-09-19T15:20:01;20.50;;;18.67;;
23682;SDS011;24897;53.514;10.482;2023-09-19T15:22:45;20.10;;;18.10;;
23682;SDS011;24897;53.514;10.482;2023-09-19T15:25:31;21.80;;;19.47;;
23682;SDS011;24897;53.514;10.482;2023-09-19T15:28:17;20.93;;;18.93;;
23682;SDS011;24897;53.514;10.482;2023-09-19T15:31:02;21.23;;;19.03;;
23682;SDS011;24897;53.514;10.482;2023-09-19T15:33:47;21.87;;;19.80;;
23682;SDS011;24897;53.514;10.482;2023-09-19T15:36:32;20.80;;;18.90;;
23682;SDS011;24897;53.514;10.482;2023-09-19T15:39:17;19.37;;;17.17;;
23682;SDS011;24897;53.514;10.482;2023-09-19T15:42:02;20.70;;;17.13;;
23682;SDS011;24897;53.514;10.482;2023-09-19T15:44:46;18.90;;;16.93;;
23682;SDS011;24897;53.514;10.482;2023-09-19T15:47:33;18.53;;;16.63;;
23682;SDS011;24897;53.514;10.482;2023-09-19T15:50:18;22.87;;;17.10;;
23682;SDS011;24897;53.514;10.482;2023-09-19T15:53:02;19.33;;;16.83;;
23682;SDS011;24897;53.514;10.482;2023-09-19T15:55:46;18.00;;;16.20;;
23682;SDS011;24897;53.514;10.482;2023-09-19T15:58:30;20.83;;;17.73;;
23682;SDS011;24897;53.514;10.482;2023-09-19T16:01:15;19.73;;;17.37;;
23682;SDS011;24897;53.514;10.482;2023-09-19T16:04:00;20.23;;;17.27;;
23682;SDS011;24897;53.514;10.482;2023-09-19T16:06:44;19.07;;;16.90;;
23682;SDS011;24897;53.514;10.482;2023-09-19T16:09:29;20.23;;;17.50;;
23682;SDS011;24897;53.514;10.482;2023-09-19T16:12:13;18.53;;;16.63;;
23682;SDS011;24897;53.514;10.482;2023-09-19T16:14:58;17.67;;;16.10;;
23682;SDS011;24897;53.514;10.482;2023-09-19T16:17:42;18.20;;;16.33;;
23682;SDS011;24897;53.514;10.482;2023-09-19T16:20:26;20.83;;;16.13;;
23682;SDS011;24897;53.514;10.482;2023-09-19T16:23:12;20.83;;;16.17;;
23682;SDS011;24897;53.514;10.482;2023-09-19T16:28:49;17.53;;;15.73;;
23682;SDS011;24897;53.514;10.482;2023-09-19T16:31:35;17.53;;;15.83;;
23682;SDS011;24897;53.514;10.482;2023-09-19T16:34:19;18.90;;;16.70;;